Elger Bay, Washington
Current Conditions -  °F | °C
As of 10:55 PM on Wednesday 22 Oct 2014 (Local Time) from KAWO Reporting Station
Overcast Overcast  
Wind Chill: 55°   Ceiling: 2600
Heat Index: 55°   Visibility: 10mi
Dew Point: 48°   Wind: 20mph
Humidity: 77%   Direction: 160°SSE
Pressure: 29.64"   Gusts: 24mph
Location:  48.2145°N, 122.297°W
Report Text: KAWO 230555Z AUTO 16017G21KT 10SM SCT021 BKN026 OVC120 13/09 A2964 RMK AO1 60006 10130 20120 52024
Loading
Personal Weather Stations






























Interactive Weather Map
Tropical Storm Tracking
New forecast layout! Learn more

10-Day Weather Forecast

Advertisements
Track Severe Weather on mobile